Time;durP1;ratioP1;P1;durP2;ratioP2;P2;SDS_P1;SDS_P2;PMS_P1;PMS_P2;Temp;Humidity;BMP_temperature;BMP_pressure;BME280_temperature;BME280_humidity;BME280_pressure;Samples;Min_cycle;Max_cycle;Signal;HPM_P1;HPM_P2
2021/12/20 00:00:22;;;;;;;;;;;7.30;99.90;;;;;;5088591;28;19923;-82
2021/12/20 00:02:52;;;;;;;;;;;6.40;99.90;;;;;;5054733;28;19916;-82
2021/12/20 00:05:19;;;;;;;;;;;6.50;99.90;;;;;;5088250;28;20361;-83
2021/12/20 00:07:45;;;;;;;;;;;6.90;99.90;;;;;;5071195;28;20052;-82
2021/12/20 00:10:11;;;;;;;;;;;7.00;99.90;;;;;;5053624;28;20368;-81
2021/12/20 00:12:36;;;;;;;;;;;7.10;99.90;;;;;;5051596;28;19966;-81
2021/12/20 00:15:03;;;;;;;;;;;6.60;99.90;;;;;;5050986;28;20233;-81
2021/12/20 00:17:28;;;;;;;;;;;6.50;99.90;;;;;;5052129;28;19921;-81
2021/12/20 00:19:54;;;;;;;;;;;6.50;99.90;;;;;;5072414;28;20007;-81
2021/12/20 00:22:19;;;;;;;;;;;6.40;99.90;;;;;;5053968;28;19920;-81
2021/12/20 00:24:45;;;;;;;;;;;6.40;99.90;;;;;;5036116;28;19917;-81
2021/12/20 00:27:13;;;;;;;;;;;7.20;99.90;;;;;;5070221;28;19985;-81
2021/12/20 00:29:38;;;;;;;;;;;6.40;99.90;;;;;;5087375;28;20035;-81
2021/12/20 00:32:04;;;;;;;;;;;6.50;99.90;;;;;;5086921;28;20020;-81
2021/12/20 00:34:29;;;;;;;;;;;6.40;99.90;;;;;;5053754;28;19974;-81
2021/12/20 00:37:04;;;;;;;;;;;6.30;99.90;;;;;;5086731;28;19984;-80
2021/12/20 00:42:13;;;;;;;;;;;6.30;99.90;;;;;;5102316;28;19916;-80
2021/12/20 00:44:39;;;;;;;;;;;6.20;99.90;;;;;;5053549;28;19927;-81
2021/12/20 00:47:04;;;;;;;;;;;7.00;99.90;;;;;;5069722;28;19917;-81
2021/12/20 00:49:30;;;;;;;;;;;6.10;99.90;;;;;;5036566;28;19947;-81
2021/12/20 00:51:56;;;;;;;;;;;6.20;99.90;;;;;;5069627;28;21061;-80
2021/12/20 00:54:21;;;;;;;;;;;6.10;99.90;;;;;;5069864;28;19978;-81
2021/12/20 00:56:48;;;;;;;;;;;6.10;99.90;;;;;;5036441;28;20003;-81
2021/12/20 00:59:14;;;;;;;;;;;6.10;99.90;;;;;;5069725;28;20364;-81
2021/12/20 01:01:40;;;;;;;;;;;6.10;99.90;;;;;;5084495;28;19920;-81
2021/12/20 01:04:06;;;;;;;;;;;6.60;99.90;;;;;;5050704;28;19916;-81
2021/12/20 01:06:32;;;;;;;;;;;6.10;99.90;;;;;;5070390;28;19920;-81
2021/12/20 01:08:57;;;;;;;;;;;6.20;99.90;;;;;;5069938;28;19917;-80
2021/12/20 01:11:26;;;;;;;;;;;6.20;99.90;;;;;;5052516;28;19977;-81
2021/12/20 01:13:53;;;;;;;;;;;6.20;99.90;;;;;;5066980;28;19917;-80
2021/12/20 01:16:28;;;;;;;;;;;6.40;99.90;;;;;;5068759;28;19923;-81
2021/12/20 01:18:54;;;;;;;;;;;7.20;99.90;;;;;;5053184;28;19916;-80
2021/12/20 01:21:20;;;;;;;;;;;6.20;99.90;;;;;;5051811;28;20016;-81
2021/12/20 01:23:45;;;;;;;;;;;6.20;99.90;;;;;;5052887;28;19917;-81
2021/12/20 01:26:11;;;;;;;;;;;6.30;99.90;;;;;;5069199;28;19946;-81
2021/12/20 01:28:37;;;;;;;;;;;6.20;99.90;;;;;;5069479;28;19916;-81
2021/12/20 01:31:02;;;;;;;;;;;6.30;99.90;;;;;;5069683;28;19916;-81
2021/12/20 01:33:28;;;;;;;;;;;6.30;99.90;;;;;;5069953;28;20114;-81
2021/12/20 01:35:56;;;;;;;;;;;6.40;99.90;;;;;;5052472;28;19916;-80
2021/12/20 01:38:22;;;;;;;;;;;6.30;99.90;;;;;;5035915;28;19924;-80
2021/12/20 01:40:48;;;;;;;;;;;6.30;99.90;;;;;;5068665;28;19928;-79
2021/12/20 01:43:15;;;;;;;;;;;7.80;99.90;;;;;;5052029;28;19916;-81
2021/12/20 01:45:40;;;;;;;;;;;6.30;99.90;;;;;;5069316;28;19959;-81
2021/12/20 01:48:09;;;;;;;;;;;7.00;99.90;;;;;;5069217;28;19993;-81
2021/12/20 01:53:10;;;;;;;;;;;6.50;99.90;;;;;;5069113;28;19928;-81
2021/12/20 01:55:36;;;;;;;;;;;6.40;99.90;;;;;;5067721;28;19939;-81
2021/12/20 01:58:01;;;;;;;;;;;6.50;99.90;;;;;;5034068;28;19920;-80
2021/12/20 02:00:28;;;;;;;;;;;7.50;99.90;;;;;;5032843;28;19916;-81
2021/12/20 02:03:01;;;;;;;;;;;6.40;99.90;;;;;;5050776;28;19999;-80
2021/12/20 02:05:47;;;;;;;;;;;6.80;99.90;;;;;;5068530;28;20319;-81
2021/12/20 02:08:28;;;;;;;;;;;6.50;99.90;;;;;;5068624;28;19916;-81
2021/12/20 02:10:56;;;;;;;;;;;7.00;99.90;;;;;;5069410;28;19943;-81
2021/12/20 02:13:24;;;;;;;;;;;7.00;99.90;;;;;;5049597;28;19971;-81
2021/12/20 02:15:50;;;;;;;;;;;6.30;99.90;;;;;;5085633;28;19927;-81
2021/12/20 02:18:15;;;;;;;;;;;6.30;99.90;;;;;;5068440;28;19920;-81
2021/12/20 02:20:41;;;;;;;;;;;6.30;99.90;;;;;;5052025;28;19930;-81
2021/12/20 02:23:08;;;;;;;;;;;6.30;99.90;;;;;;5068210;28;20275;-81
2021/12/20 02:25:34;;;;;;;;;;;7.30;99.90;;;;;;5035981;28;19916;-80
2021/12/20 02:28:04;;;;;;;;;;;6.80;99.90;;;;;;5052166;28;19920;-81
2021/12/20 02:38:27;;;;;;;;;;;6.20;99.90;;;;;;5071988;28;20360;-81
2021/12/20 02:41:00;;;;;;;;;;;6.20;99.90;;;;;;5072706;28;19921;-81
2021/12/20 02:43:28;;;;;;;;;;;6.10;99.90;;;;;;5055635;28;19916;-81
2021/12/20 02:45:57;;;;;;;;;;;6.10;99.90;;;;;;5056570;28;20029;-80
2021/12/20 02:48:23;;;;;;;;;;;6.10;99.90;;;;;;5070433;28;19924;-81
2021/12/20 02:50:52;;;;;;;;;;;5.90;99.90;;;;;;5056050;28;19924;-80
2021/12/20 02:53:18;;;;;;;;;;;6.80;99.90;;;;;;5071253;28;19995;-81
2021/12/20 02:55:43;;;;;;;;;;;7.10;99.90;;;;;;5072572;28;19963;-81
2021/12/20 02:58:09;;;;;;;;;;;6.00;99.90;;;;;;5072345;28;20073;-81
2021/12/20 03:00:35;;;;;;;;;;;6.10;99.90;;;;;;5071778;28;19924;-81
2021/12/20 03:03:00;;;;;;;;;;;6.00;99.90;;;;;;5071898;28;19917;-80
2021/12/20 03:05:26;;;;;;;;;;;5.90;99.90;;;;;;5055019;28;20335;-81
2021/12/20 03:07:52;;;;;;;;;;;7.50;99.90;;;;;;5072314;28;19916;-81
2021/12/20 03:10:19;;;;;;;;;;;5.90;99.90;;;;;;5071151;28;19920;-81
2021/12/20 03:12:46;;;;;;;;;;;6.10;99.90;;;;;;5073572;28;20364;-81
2021/12/20 03:15:16;;;;;;;;;;;6.30;99.90;;;;;;5055143;28;19956;-81
2021/12/20 03:17:42;;;;;;;;;;;5.80;99.90;;;;;;5054952;28;19951;-80
2021/12/20 03:20:08;;;;;;;;;;;6.10;99.90;;;;;;5072629;28;19928;-81
2021/12/20 03:22:34;;;;;;;;;;;5.80;99.90;;;;;;5071283;28;19932;-81
2021/12/20 03:24:59;;;;;;;;;;;6.00;99.90;;;;;;5055404;28;19920;-81
2021/12/20 03:27:25;;;;;;;;;;;5.70;99.90;;;;;;5054856;28;19925;-80
2021/12/20 03:29:51;;;;;;;;;;;6.80;99.90;;;;;;5072103;28;19996;-81
2021/12/20 03:32:16;;;;;;;;;;;6.90;99.90;;;;;;5053982;28;20336;-81
2021/12/20 03:34:42;;;;;;;;;;;5.50;99.90;;;;;;5055159;28;19916;-80
2021/12/20 03:37:07;;;;;;;;;;;5.90;99.90;;;;;;5036867;28;19920;-80
2021/12/20 03:39:33;;;;;;;;;;;6.30;99.90;;;;;;5070393;28;19923;-81
2021/12/20 03:42:00;;;;;;;;;;;5.40;99.90;;;;;;5072578;28;19924;-81
2021/12/20 03:44:26;;;;;;;;;;;5.40;99.90;;;;;;5070406;28;19924;-80
2021/12/20 03:46:51;;;;;;;;;;;5.30;99.90;;;;;;5071235;28;19917;-81
2021/12/20 03:49:17;;;;;;;;;;;6.20;99.90;;;;;;5070702;28;19993;-81
2021/12/20 03:51:43;;;;;;;;;;;4.60;99.90;;;;;;5070540;28;19916;-81
2021/12/20 03:54:09;;;;;;;;;;;5.10;99.90;;;;;;5070753;28;19923;-81
2021/12/20 03:56:34;;;;;;;;;;;5.20;99.90;;;;;;5070833;28;19920;-81
2021/12/20 03:59:00;;;;;;;;;;;6.00;99.90;;;;;;5053992;28;19921;-80
2021/12/20 04:01:26;;;;;;;;;;;5.00;99.90;;;;;;5070501;28;20407;-81
2021/12/20 04:03:52;;;;;;;;;;;5.00;99.90;;;;;;5071257;28;20329;-80
2021/12/20 04:06:17;;;;;;;;;;;4.90;99.90;;;;;;5070475;28;20259;-80
2021/12/20 04:08:43;;;;;;;;;;;4.90;99.90;;;;;;5070469;28;20671;-80
2021/12/20 04:11:09;;;;;;;;;;;4.90;99.90;;;;;;5053774;28;19922;-81
2021/12/20 04:13:35;;;;;;;;;;;5.50;99.90;;;;;;5053889;28;20394;-81
2021/12/20 04:16:01;;;;;;;;;;;5.60;99.90;;;;;;5053783;28;19916;-80
2021/12/20 04:18:27;;;;;;;;;;;5.10;99.90;;;;;;5070397;28;19987;-80
2021/12/20 04:20:53;;;;;;;;;;;5.00;99.90;;;;;;5070463;28;20069;-80
2021/12/20 04:23:18;;;;;;;;;;;4.70;99.90;;;;;;5053488;28;19999;-81
2021/12/20 04:25:44;;;;;;;;;;;5.50;99.90;;;;;;5053608;28;19917;-80
2021/12/20 04:28:10;;;;;;;;;;;5.00;99.90;;;;;;5070340;28;19954;-81
2021/12/20 04:30:36;;;;;;;;;;;6.10;99.90;;;;;;5053408;28;19939;-81
2021/12/20 04:33:01;;;;;;;;;;;5.90;99.90;;;;;;5065832;28;20379;-80
2021/12/20 04:35:27;;;;;;;;;;;5.70;99.90;;;;;;5053495;28;19924;-80
2021/12/20 04:37:53;;;;;;;;;;;4.80;99.90;;;;;;5053540;28;19928;-80
2021/12/20 04:40:21;;;;;;;;;;;4.30;99.90;;;;;;5070136;28;19916;-80
2021/12/20 04:42:48;;;;;;;;;;;4.30;99.90;;;;;;5070124;28;19923;-80
2021/12/20 04:45:13;;;;;;;;;;;5.70;99.90;;;;;;5053119;28;19916;-80
2021/12/20 04:47:39;;;;;;;;;;;4.70;99.90;;;;;;5069817;28;20055;-80
2021/12/20 04:50:05;;;;;;;;;;;5.20;99.90;;;;;;5069944;28;20343;-80
2021/12/20 04:52:31;;;;;;;;;;;4.20;99.90;;;;;;5052993;28;20383;-81
2021/12/20 04:54:56;;;;;;;;;;;5.00;99.90;;;;;;5053202;28;19916;-81
2021/12/20 04:57:22;;;;;;;;;;;5.70;99.90;;;;;;5052834;28;20445;-80
2021/12/20 04:59:48;;;;;;;;;;;5.00;99.90;;;;;;5069903;28;19951;-81
2021/12/20 05:02:13;;;;;;;;;;;4.00;99.90;;;;;;5069943;28;19923;-80
2021/12/20 05:04:39;;;;;;;;;;;3.90;99.90;;;;;;5036545;28;19924;-81
2021/12/20 05:07:05;;;;;;;;;;;3.90;99.90;;;;;;5036498;28;20015;-81
2021/12/20 05:09:37;;;;;;;;;;;5.00;99.90;;;;;;5069989;28;20325;-81
2021/12/20 05:12:11;;;;;;;;;;;4.10;99.90;;;;;;5069644;28;20601;-81
2021/12/20 05:14:38;;;;;;;;;;;3.70;99.90;;;;;;5069295;28;19923;-81
2021/12/20 05:17:03;;;;;;;;;;;4.30;99.90;;;;;;5070553;28;19920;-80
2021/12/20 05:19:29;;;;;;;;;;;4.20;99.90;;;;;;5070503;28;20329;-81
2021/12/20 05:21:56;;;;;;;;;;;3.60;99.90;;;;;;5070450;28;19916;-80
2021/12/20 05:24:22;;;;;;;;;;;3.60;99.90;;;;;;5053580;28;19916;-81
2021/12/20 05:26:47;;;;;;;;;;;4.10;99.90;;;;;;5086329;28;19923;-80
2021/12/20 05:29:13;;;;;;;;;;;5.20;99.90;;;;;;5069571;28;20002;-85
2021/12/20 05:31:38;;;;;;;;;;;4.50;99.90;;;;;;5053109;28;19916;-79
2021/12/20 05:34:04;;;;;;;;;;;4.30;99.90;;;;;;5068981;28;19920;-80
2021/12/20 05:36:30;;;;;;;;;;;4.80;99.90;;;;;;5052770;28;19921;-80
2021/12/20 05:38:55;;;;;;;;;;;3.50;99.90;;;;;;5052162;28;20389;-81
2021/12/20 05:41:21;;;;;;;;;;;4.90;99.90;;;;;;5086058;28;20008;-82
2021/12/20 05:43:47;;;;;;;;;;;4.70;99.90;;;;;;5069719;28;19973;-81
2021/12/20 05:46:12;;;;;;;;;;;3.40;99.90;;;;;;5071610;28;19916;-81
2021/12/20 05:48:38;;;;;;;;;;;3.90;99.90;;;;;;5071564;28;19923;-81
2021/12/20 05:51:03;;;;;;;;;;;3.50;99.90;;;;;;5070943;28;19920;-81
2021/12/20 05:53:29;;;;;;;;;;;3.40;99.90;;;;;;5070780;28;19927;-81
2021/12/20 05:55:55;;;;;;;;;;;3.40;99.90;;;;;;5053890;28;20292;-81
2021/12/20 05:58:20;;;;;;;;;;;3.40;99.90;;;;;;5070938;28;19927;-81
2021/12/20 06:00:46;;;;;;;;;;;3.30;99.90;;;;;;5054013;28;19927;-81
2021/12/20 06:03:11;;;;;;;;;;;3.80;99.90;;;;;;5071122;28;19916;-81
2021/12/20 06:05:42;;;;;;;;;;;3.30;99.90;;;;;;5053994;28;19917;-81
2021/12/20 06:08:11;;;;;;;;;;;3.70;99.90;;;;;;5072397;28;19923;-81
2021/12/20 06:10:36;;;;;;;;;;;3.10;99.90;;;;;;5091598;28;19971;-81
2021/12/20 06:13:03;;;;;;;;;;;4.00;99.90;;;;;;5074643;28;20355;-81
2021/12/20 06:15:29;;;;;;;;;;;3.00;99.90;;;;;;5058516;28;19923;-81
2021/12/20 06:17:55;;;;;;;;;;;3.00;99.90;;;;;;5074476;28;19920;-81
2021/12/20 06:20:20;;;;;;;;;;;4.30;99.90;;;;;;5057744;28;20349;-81
2021/12/20 06:22:46;;;;;;;;;;;3.50;99.90;;;;;;5074675;28;19924;-80
2021/12/20 06:25:12;;;;;;;;;;;2.90;99.90;;;;;;5074355;28;20295;-81
2021/12/20 06:27:38;;;;;;;;;;;2.90;99.90;;;;;;5074754;28;19963;-81
2021/12/20 06:30:04;;;;;;;;;;;3.50;99.90;;;;;;5074666;28;19916;-81
2021/12/20 06:32:30;;;;;;;;;;;2.80;99.90;;;;;;5074714;28;19927;-81
2021/12/20 06:34:55;;;;;;;;;;;2.80;99.90;;;;;;5074307;28;19916;-81
2021/12/20 06:37:21;;;;;;;;;;;2.70;99.90;;;;;;5066193;28;19936;-81
2021/12/20 06:39:47;;;;;;;;;;;2.70;99.90;;;;;;5048796;28;19923;-81
2021/12/20 06:42:12;;;;;;;;;;;2.80;99.90;;;;;;5074083;28;19917;-81
2021/12/20 06:44:38;;;;;;;;;;;3.50;99.90;;;;;;5074325;28;19916;-81
2021/12/20 06:47:04;;;;;;;;;;;2.60;99.90;;;;;;5057074;28;19916;-81
2021/12/20 06:49:29;;;;;;;;;;;2.60;99.90;;;;;;5057291;28;19963;-81
2021/12/20 06:51:58;;;;;;;;;;;2.60;99.90;;;;;;5073305;28;19995;-81
2021/12/20 06:54:24;;;;;;;;;;;3.70;99.90;;;;;;5057706;28;19924;-81
2021/12/20 06:56:50;;;;;;;;;;;2.50;99.90;;;;;;5073857;28;20000;-81
2021/12/20 06:59:15;;;;;;;;;;;2.60;99.90;;;;;;5074174;28;19960;-81
2021/12/20 07:01:41;;;;;;;;;;;2.50;99.90;;;;;;5108148;28;20409;-81
2021/12/20 07:04:07;;;;;;;;;;;2.50;99.90;;;;;;5074250;28;19995;-81
2021/12/20 07:06:33;;;;;;;;;;;2.40;99.90;;;;;;5057882;28;20001;-81
2021/12/20 07:08:58;;;;;;;;;;;2.40;99.90;;;;;;5074746;28;19928;-81
2021/12/20 07:11:24;;;;;;;;;;;3.00;99.90;;;;;;5074134;28;19916;-81
2021/12/20 07:13:53;;;;;;;;;;;2.40;99.90;;;;;;5074115;28;20376;-81
2021/12/20 07:16:19;;;;;;;;;;;2.30;99.90;;;;;;5057347;28;20368;-81
2021/12/20 07:18:44;;;;;;;;;;;2.70;99.90;;;;;;5055676;28;19931;-81
2021/12/20 07:21:10;;;;;;;;;;;2.30;99.90;;;;;;5055008;28;19924;-81
2021/12/20 07:23:35;;;;;;;;;;;2.20;99.90;;;;;;5072844;28;19916;-81
2021/12/20 07:26:06;;;;;;;;;;;2.20;99.90;;;;;;5073621;28;19928;-81
2021/12/20 07:28:31;;;;;;;;;;;2.20;99.90;;;;;;5057022;28;19916;-81
2021/12/20 07:30:57;;;;;;;;;;;2.20;99.90;;;;;;5057303;28;19916;-82
2021/12/20 07:33:22;;;;;;;;;;;2.10;99.90;;;;;;5073369;28;19970;-81
2021/12/20 07:35:49;;;;;;;;;;;2.20;99.90;;;;;;5056720;28;19965;-81
2021/12/20 07:38:15;;;;;;;;;;;2.10;99.90;;;;;;5073238;28;19927;-81
2021/12/20 07:40:44;;;;;;;;;;;2.90;99.90;;;;;;5073018;28;19916;-81
2021/12/20 07:43:10;;;;;;;;;;;2.10;99.90;;;;;;5056884;28;20432;-81
2021/12/20 07:45:36;;;;;;;;;;;2.30;99.90;;;;;;5073690;28;19917;-81
2021/12/20 07:48:02;;;;;;;;;;;2.10;99.90;;;;;;5057254;28;19916;-81
2021/12/20 07:50:28;;;;;;;;;;;2.10;99.90;;;;;;5073336;28;20347;-81
2021/12/20 07:52:54;;;;;;;;;;;2.10;99.90;;;;;;5056630;28;19916;-81
2021/12/20 07:55:19;;;;;;;;;;;2.00;99.90;;;;;;5056668;28;19920;-81
2021/12/20 07:57:45;;;;;;;;;;;2.10;99.90;;;;;;5056216;28;19924;-81
2021/12/20 08:00:11;;;;;;;;;;;3.30;99.90;;;;;;5056727;28;19920;-81
2021/12/20 08:02:37;;;;;;;;;;;2.10;99.90;;;;;;5056400;28;19916;-81
2021/12/20 08:05:02;;;;;;;;;;;2.10;99.90;;;;;;5073277;28;20398;-81
2021/12/20 08:07:28;;;;;;;;;;;2.10;99.90;;;;;;5073231;28;19974;-81
2021/12/20 08:09:54;;;;;;;;;;;2.10;99.90;;;;;;5072626;28;19920;-81
2021/12/20 08:12:19;;;;;;;;;;;2.20;99.90;;;;;;5073067;28;19920;-81
2021/12/20 08:14:45;;;;;;;;;;;2.20;99.90;;;;;;5072937;28;20049;-81
2021/12/20 08:17:11;;;;;;;;;;;2.70;99.90;;;;;;5072274;28;19935;-81
2021/12/20 08:19:36;;;;;;;;;;;3.70;99.90;;;;;;5072360;28;19921;-81
2021/12/20 08:22:02;;;;;;;;;;;3.00;99.90;;;;;;5072319;28;19917;-81
2021/12/20 08:24:28;;;;;;;;;;;2.20;99.90;;;;;;5072570;28;19916;-81
2021/12/20 08:26:54;;;;;;;;;;;2.40;99.90;;;;;;5072544;28;19923;-81
2021/12/20 08:29:19;;;;;;;;;;;2.40;99.90;;;;;;5072280;28;19995;-81
2021/12/20 08:31:45;;;;;;;;;;;2.70;99.90;;;;;;5071757;28;20005;-81
2021/12/20 08:34:10;;;;;;;;;;;3.30;99.90;;;;;;5072633;28;20310;-81
2021/12/20 08:36:36;;;;;;;;;;;3.80;99.90;;;;;;5072241;28;19924;-82
2021/12/20 08:39:02;;;;;;;;;;;4.80;99.90;;;;;;5055834;28;19931;-81
2021/12/20 08:41:28;;;;;;;;;;;5.10;99.90;;;;;;5055109;28;19916;-81
2021/12/20 08:43:53;;;;;;;;;;;5.30;99.90;;;;;;5072078;28;20026;-81
2021/12/20 08:46:19;;;;;;;;;;;6.90;99.90;;;;;;5072480;28;19920;-81
2021/12/20 08:48:45;;;;;;;;;;;6.20;99.90;;;;;;5055183;28;19927;-81
2021/12/20 08:51:11;;;;;;;;;;;6.40;99.90;;;;;;5071622;28;19947;-81
2021/12/20 08:53:37;;;;;;;;;;;7.00;99.90;;;;;;5072277;28;19973;-81
2021/12/20 08:56:05;;;;;;;;;;;7.00;99.90;;;;;;5054937;28;20003;-81
2021/12/20 08:58:31;;;;;;;;;;;7.30;99.90;;;;;;5055179;28;20264;-81
2021/12/20 09:00:56;;;;;;;;;;;8.10;99.90;;;;;;5055315;28;19923;-81
2021/12/20 09:03:22;;;;;;;;;;;7.70;99.90;;;;;;5071898;28;19928;-81
2021/12/20 09:05:48;;;;;;;;;;;7.80;99.90;;;;;;5055369;28;19916;-82
2021/12/20 09:08:16;;;;;;;;;;;7.50;99.90;;;;;;5055203;28;19920;-81
2021/12/20 09:10:42;;;;;;;;;;;8.10;99.90;;;;;;5071261;28;19920;-82
2021/12/20 09:13:08;;;;;;;;;;;6.40;99.90;;;;;;5071619;28;19916;-81
2021/12/20 09:15:34;;;;;;;;;;;6.00;99.90;;;;;;5055168;28;19983;-82
2021/12/20 09:18:00;;;;;;;;;;;6.00;99.90;;;;;;5054658;28;19950;-81
2021/12/20 09:20:27;;;;;;;;;;;7.00;99.90;;;;;;5054623;28;19920;-82
2021/12/20 09:22:54;;;;;;;;;;;6.60;99.90;;;;;;5071413;28;19917;-82
2021/12/20 09:25:29;;;;;;;;;;;7.30;99.90;;;;;;5071924;28;20379;-82
2021/12/20 09:27:56;;;;;;;;;;;7.80;99.90;;;;;;5054340;28;19923;-82
2021/12/20 09:30:22;;;;;;;;;;;8.40;99.90;;;;;;5071372;28;19916;-82
2021/12/20 09:32:48;;;;;;;;;;;8.90;99.90;;;;;;5088372;28;20313;-81
2021/12/20 09:35:14;;;;;;;;;;;9.10;99.90;;;;;;5071055;28;20003;-82
2021/12/20 09:37:40;;;;;;;;;;;9.30;99.90;;;;;;5057224;28;20372;-82
2021/12/20 09:40:06;;;;;;;;;;;9.40;99.90;;;;;;5071429;28;19917;-82
2021/12/20 09:42:33;;;;;;;;;;;9.40;99.90;;;;;;5070326;28;19934;-83
2021/12/20 09:45:00;;;;;;;;;;;9.30;99.90;;;;;;5054593;28;19924;-82
2021/12/20 09:47:30;;;;;;;;;;;9.40;99.90;;;;;;5054583;28;19924;-82
2021/12/20 09:49:56;;;;;;;;;;;9.20;99.90;;;;;;5054553;28;19982;-82
2021/12/20 09:52:22;;;;;;;;;;;9.50;99.90;;;;;;5054884;28;19966;-82
2021/12/20 09:54:47;;;;;;;;;;;10.10;99.90;;;;;;5070974;28;19916;-81
2021/12/20 09:57:15;;;;;;;;;;;10.90;99.90;;;;;;5071319;28;19928;-81
2021/12/20 09:59:42;;;;;;;;;;;11.50;99.90;;;;;;5063645;28;20029;-82
2021/12/20 10:02:08;;;;;;;;;;;11.90;99.90;;;;;;5071292;28;19923;-81
2021/12/20 10:04:34;;;;;;;;;;;12.30;99.90;;;;;;5054810;28;20288;-82
2021/12/20 10:07:01;;;;;;;;;;;12.60;99.90;;;;;;5054418;28;20332;-81
2021/12/20 10:09:32;;;;;;;;;;;12.80;99.90;;;;;;5071082;28;19916;-81
2021/12/20 10:12:13;;;;;;;;;;;13.00;99.90;;;;;;5054380;28;19916;-81
2021/12/20 10:14:52;;;;;;;;;;;13.20;99.90;;;;;;5071140;28;19916;-81
2021/12/20 10:17:17;;;;;;;;;;;13.40;99.90;;;;;;5098625;28;19920;-81
2021/12/20 10:19:43;;;;;;;;;;;13.40;99.90;;;;;;5037354;28;20413;-82
2021/12/20 10:22:21;;;;;;;;;;;13.60;99.90;;;;;;5070583;28;20375;-81
2021/12/20 10:24:47;;;;;;;;;;;13.40;99.90;;;;;;5071190;28;19924;-81
2021/12/20 10:27:29;;;;;;;;;;;13.70;99.90;;;;;;5070798;28;19931;-82
2021/12/20 10:29:55;;;;;;;;;;;13.80;99.90;;;;;;5054000;28;20332;-81
2021/12/20 10:32:39;;;;;;;;;;;14.00;99.90;;;;;;5053449;28;19999;-82
2021/12/20 10:35:24;;;;;;;;;;;14.00;99.90;;;;;;5068307;28;19922;-81
2021/12/20 10:37:50;;;;;;;;;;;14.10;99.90;;;;;;5070157;28;19927;-81
2021/12/20 10:40:16;;;;;;;;;;;13.90;99.90;;;;;;5070497;28;19916;-81
2021/12/20 10:42:42;;;;;;;;;;;13.90;99.90;;;;;;5069269;28;19917;-82
2021/12/20 10:45:13;;;;;;;;;;;14.00;99.90;;;;;;5070125;28;20410;-81
2021/12/20 10:47:39;;;;;;;;;;;14.20;99.90;;;;;;5070108;28;20023;-82
2021/12/20 10:50:31;;;;;;;;;;;14.50;99.90;;;;;;5070002;28;19931;-82
2021/12/20 10:53:17;;;;;;;;;;;15.00;99.90;;;;;;5066525;28;19959;-81
2021/12/20 10:55:50;;;;;;;;;;;15.00;99.90;;;;;;5062747;28;19923;-81
2021/12/20 10:58:16;;;;;;;;;;;15.40;99.90;;;;;;5054225;28;19974;-80
2021/12/20 11:00:42;;;;;;;;;;;15.50;99.90;;;;;;5073908;28;20303;-80
2021/12/20 11:05:57;;;;;;;;;;;15.70;99.90;;;;;;5073297;28;19916;-81
2021/12/20 11:11:29;;;;;;;;;;;15.90;99.90;;;;;;5043088;28;19927;-81
2021/12/20 11:13:55;;;;;;;;;;;15.90;99.90;;;;;;5031760;28;19917;-80
2021/12/20 11:16:21;;;;;;;;;;;16.00;99.90;;;;;;5045509;28;20322;-80
2021/12/20 11:18:47;;;;;;;;;;;16.40;99.90;;;;;;5040948;28;19920;-81
2021/12/20 11:21:13;;;;;;;;;;;16.50;99.90;;;;;;5073754;28;20376;-80
2021/12/20 11:23:38;;;;;;;;;;;16.70;99.90;;;;;;5074052;28;20364;-81
2021/12/20 11:26:04;;;;;;;;;;;16.80;99.90;;;;;;5073550;28;19965;-81
2021/12/20 11:28:29;;;;;;;;;;;17.00;99.90;;;;;;5074174;28;20288;-81
2021/12/20 11:30:55;;;;;;;;;;;17.10;99.90;;;;;;5057416;28;19966;-81
2021/12/20 11:33:21;;;;;;;;;;;17.40;99.90;;;;;;5074320;28;19916;-81
2021/12/20 11:35:46;;;;;;;;;;;17.50;99.90;;;;;;5074476;28;20317;-83
2021/12/20 11:38:12;;;;;;;;;;;17.50;99.90;;;;;;5074411;28;20273;-82
2021/12/20 11:40:38;;;;;;;;;;;17.30;99.40;;;;;;5057796;28;19916;-82
2021/12/20 11:43:03;;;;;;;;;;;17.70;99.30;;;;;;5074208;28;20007;-82
2021/12/20 11:45:29;;;;;;;;;;;17.60;99.90;;;;;;5074138;28;19995;-82
2021/12/20 11:48:01;;;;;;;;;;;17.60;99.90;;;;;;5073437;28;19916;-83
2021/12/20 11:50:31;;;;;;;;;;;17.80;98.40;;;;;;5074320;28;19917;-82
2021/12/20 11:53:04;;;;;;;;;;;17.80;94.30;;;;;;5074107;28;19923;-82
2021/12/20 11:55:29;;;;;;;;;;;17.50;92.30;;;;;;5073493;28;19966;-82
2021/12/20 11:57:56;;;;;;;;;;;17.60;91.50;;;;;;5036959;28;19956;-83
2021/12/20 12:00:23;;;;;;;;;;;17.90;91.80;;;;;;5045649;28;20002;-82
2021/12/20 12:02:53;;;;;;;;;;;17.70;91.10;;;;;;5056591;28;19923;-82
2021/12/20 12:05:39;;;;;;;;;;;17.70;90.90;;;;;;5073009;28;19923;-83
2021/12/20 12:08:20;;;;;;;;;;;17.90;89.40;;;;;;5073143;28;19916;-82
2021/12/20 12:10:46;;;;;;;;;;;17.80;91.80;;;;;;5064543;28;19923;-82
2021/12/20 12:13:15;;;;;;;;;;;17.80;91.60;;;;;;5057056;28;19916;-82
2021/12/20 12:15:50;;;;;;;;;;;18.40;88.10;;;;;;5073483;28;19916;-83
2021/12/20 12:18:16;;;;;;;;;;;18.40;90.20;;;;;;5073068;28;19920;-83
2021/12/20 12:20:50;;;;;;;;;;;18.30;86.60;;;;;;5055877;28;20026;-82
2021/12/20 12:23:19;;;;;;;;;;;17.80;87.80;;;;;;5055799;28;19923;-82
2021/12/20 12:25:49;;;;;;;;;;;17.90;88.20;;;;;;5073142;28;19988;-82
2021/12/20 12:28:16;;;;;;;;;;;17.90;87.00;;;;;;5072685;28;19924;-82
2021/12/20 12:31:02;;;;;;;;;;;18.20;83.50;;;;;;5072858;28;19916;-82
2021/12/20 12:33:29;;;;;;;;;;;18.90;74.60;;;;;;5072598;28;19962;-83
2021/12/20 12:35:56;;;;;;;;;;;18.90;74.20;;;;;;5073441;28;20313;-83
2021/12/20 12:38:22;;;;;;;;;;;18.30;73.30;;;;;;5072437;28;19920;-83
2021/12/20 12:40:51;;;;;;;;;;;18.00;71.00;;;;;;5055768;28;19916;-82
2021/12/20 12:43:17;;;;;;;;;;;17.80;70.40;;;;;;5065061;28;19969;-83
2021/12/20 12:45:54;;;;;;;;;;;16.80;70.70;;;;;;5055362;28;19924;-83
2021/12/20 12:48:40;;;;;;;;;;;16.10;74.30;;;;;;5070922;28;19985;-82
2021/12/20 12:51:21;;;;;;;;;;;15.30;82.70;;;;;;5085915;28;20356;-83
2021/12/20 12:53:48;;;;;;;;;;;14.50;83.10;;;;;;5055126;28;19916;-82
2021/12/20 12:56:23;;;;;;;;;;;13.80;87.20;;;;;;5069016;28;19931;-83
2021/12/20 12:59:19;;;;;;;;;;;13.30;91.10;;;;;;5054790;28;19927;-82
2021/12/20 13:01:49;;;;;;;;;;;12.90;92.70;;;;;;5048761;28;19916;-82
2021/12/20 13:04:15;;;;;;;;;;;12.80;93.50;;;;;;5054928;28;19920;-82
2021/12/20 13:06:41;;;;;;;;;;;12.40;92.10;;;;;;5088612;28;19916;-82
2021/12/20 13:09:06;;;;;;;;;;;12.20;94.40;;;;;;5054139;28;19939;-83
2021/12/20 13:11:32;;;;;;;;;;;12.20;93.20;;;;;;5069770;28;20376;-83
2021/12/20 13:14:10;;;;;;;;;;;12.00;93.70;;;;;;5052900;28;20376;-83
2021/12/20 13:16:42;;;;;;;;;;;11.90;93.00;;;;;;5068047;28;19988;-83
2021/12/20 13:19:09;;;;;;;;;;;11.80;94.80;;;;;;5068775;28;20011;-83
2021/12/20 13:21:54;;;;;;;;;;;12.00;93.00;;;;;;5070117;28;19924;-81
2021/12/20 13:24:20;;;;;;;;;;;11.90;93.20;;;;;;5054022;28;20007;-81
2021/12/20 13:26:45;;;;;;;;;;;11.80;95.60;;;;;;5071159;28;20373;-81
2021/12/20 13:29:18;;;;;;;;;;;11.60;97.00;;;;;;5054258;28;19947;-82
2021/12/20 13:31:43;;;;;;;;;;;11.60;96.70;;;;;;5054519;28;19916;-82
2021/12/20 13:34:14;;;;;;;;;;;11.30;96.50;;;;;;5054258;28;20000;-82
2021/12/20 13:36:40;;;;;;;;;;;11.30;96.60;;;;;;5070779;28;20018;-82
2021/12/20 13:39:09;;;;;;;;;;;11.20;96.20;;;;;;5053889;28;20590;-82
2021/12/20 13:41:38;;;;;;;;;;;11.30;95.30;;;;;;5071428;28;19985;-82
2021/12/20 13:44:06;;;;;;;;;;;11.30;95.60;;;;;;5071203;28;19923;-81
2021/12/20 13:49:04;;;;;;;;;;;11.10;95.60;;;;;;5070702;28;19969;-82
2021/12/20 13:51:47;;;;;;;;;;;10.90;94.90;;;;;;5070247;28;20010;-82
2021/12/20 13:54:14;;;;;;;;;;;10.90;95.70;;;;;;5070370;28;19991;-82
2021/12/20 13:56:41;;;;;;;;;;;10.70;97.40;;;;;;5087569;28;19960;-82
2021/12/20 13:59:07;;;;;;;;;;;10.70;97.40;;;;;;5053642;28;19962;-83
2021/12/20 14:01:33;;;;;;;;;;;10.60;97.30;;;;;;5069675;28;19921;-82
2021/12/20 14:03:58;;;;;;;;;;;10.70;97.70;;;;;;5070458;28;19916;-82
2021/12/20 14:06:35;;;;;;;;;;;10.50;98.40;;;;;;5070414;28;19916;-83
2021/12/20 14:09:09;;;;;;;;;;;10.40;99.90;;;;;;5069833;28;19923;-83
2021/12/20 14:11:35;;;;;;;;;;;10.20;99.90;;;;;;5053514;28;19920;-82
2021/12/20 14:14:07;;;;;;;;;;;10.00;99.90;;;;;;5053122;28;20012;-82
2021/12/20 14:16:52;;;;;;;;;;;9.90;99.90;;;;;;5069582;28;19969;-82
2021/12/20 14:19:17;;;;;;;;;;;9.90;99.90;;;;;;5069928;28;19920;-83
2021/12/20 14:21:43;;;;;;;;;;;9.80;99.90;;;;;;5069876;28;19920;-82
2021/12/20 14:24:08;;;;;;;;;;;9.70;99.90;;;;;;5070793;28;19929;-82
2021/12/20 14:26:37;;;;;;;;;;;9.70;99.90;;;;;;5070392;28;19934;-83
2021/12/20 14:29:03;;;;;;;;;;;9.60;99.90;;;;;;5071771;28;20034;-81
2021/12/20 14:31:38;;;;;;;;;;;9.60;99.90;;;;;;5057278;28;19960;-83
2021/12/20 14:34:04;;;;;;;;;;;9.70;99.90;;;;;;5055949;28;19942;-83
2021/12/20 14:36:34;;;;;;;;;;;9.60;99.90;;;;;;5040766;28;19920;-82
2021/12/20 14:39:19;;;;;;;;;;;9.50;99.90;;;;;;5074023;28;19924;-82
2021/12/20 14:41:50;;;;;;;;;;;9.40;99.90;;;;;;5073275;28;19939;-82
2021/12/20 14:44:31;;;;;;;;;;;9.20;99.90;;;;;;5068729;28;20264;-82
2021/12/20 14:49:42;;;;;;;;;;;9.00;99.90;;;;;;5073213;28;19923;-82
2021/12/20 14:52:09;;;;;;;;;;;9.10;99.90;;;;;;5072131;28;19920;-82